sensor_id;sensor_type;location;lat;lon;timestamp;pressure;altitude;pressure_sealevel;temperature;humidity
52949;BME280;38812;50.942;3.644;2023-04-22T00:01:28;100792.47;;;5.09;100.00
52949;BME280;38812;50.942;3.644;2023-04-22T00:03:54;100791.63;;;5.20;100.00
52949;BME280;38812;50.942;3.644;2023-04-22T00:06:19;100786.41;;;5.16;100.00
52949;BME280;38812;50.942;3.644;2023-04-22T00:08:45;100783.81;;;5.15;100.00
52949;BME280;38812;50.942;3.644;2023-04-22T00:11:10;100780.31;;;5.16;100.00
52949;BME280;38812;50.942;3.644;2023-04-22T00:13:36;100784.66;;;5.19;100.00
52949;BME280;38812;50.942;3.644;2023-04-22T00:16:05;100784.66;;;5.19;100.00
52949;BME280;38812;50.942;3.644;2023-04-22T00:18:35;100794.22;;;5.16;100.00
52949;BME280;38812;50.942;3.644;2023-04-22T00:21:02;100790.72;;;5.21;100.00
52949;BME280;38812;50.942;3.644;2023-04-22T00:23:27;100795.06;;;5.28;100.00
52949;BME280;38812;50.942;3.644;2023-04-22T00:25:52;100784.66;;;5.37;100.00
52949;BME280;38812;50.942;3.644;2023-04-22T00:28:18;100782.06;;;5.37;100.00
52949;BME280;38812;50.942;3.644;2023-04-22T00:30:43;100778.56;;;5.33;100.00
52949;BME280;38812;50.942;3.644;2023-04-22T00:33:09;100770.72;;;5.44;100.00
52949;BME280;38812;50.942;3.644;2023-04-22T00:35:34;100770.75;;;5.41;100.00
52949;BME280;38812;50.942;3.644;2023-04-22T00:37:59;100759.47;;;5.28;100.00
52949;BME280;38812;50.942;3.644;2023-04-22T00:40:26;100765.53;;;5.27;100.00
52949;BME280;38812;50.942;3.644;2023-04-22T00:42:52;100774.25;;;5.19;100.00
52949;BME280;38812;50.942;3.644;2023-04-22T00:45:18;100764.69;;;5.24;100.00
52949;BME280;38812;50.942;3.644;2023-04-22T00:47:45;100769.03;;;5.28;100.00
52949;BME280;38812;50.942;3.644;2023-04-22T00:50:11;100757.72;;;5.23;100.00
52949;BME280;38812;50.942;3.644;2023-04-22T00:52:36;100776.00;;;5.16;100.00
52949;BME280;38812;50.942;3.644;2023-04-22T00:55:02;100769.03;;;5.15;100.00
52949;BME280;38812;50.942;3.644;2023-04-22T00:57:28;100753.41;;;5.06;100.00
52949;BME280;38812;50.942;3.644;2023-04-22T00:59:54;100772.50;;;5.14;100.00
52949;BME280;38812;50.942;3.644;2023-04-22T01:02:20;100761.19;;;5.20;100.00
52949;BME280;38812;50.942;3.644;2023-04-22T01:04:46;100760.34;;;5.10;100.00
52949;BME280;38812;50.942;3.644;2023-04-22T01:07:11;100763.84;;;5.12;100.00
52949;BME280;38812;50.942;3.644;2023-04-22T01:09:37;100762.09;;;5.19;100.00
52949;BME280;38812;50.942;3.644;2023-04-22T01:12:04;100755.16;;;5.12;100.00
52949;BME280;38812;50.942;3.644;2023-04-22T01:14:30;100764.69;;;5.10;100.00
52949;BME280;38812;50.942;3.644;2023-04-22T01:16:56;100753.41;;;5.06;100.00
52949;BME280;38812;50.942;3.644;2023-04-22T01:19:22;100736.91;;;4.98;100.00
52949;BME280;38812;50.942;3.644;2023-04-22T01:21:49;100748.19;;;5.03;100.00
52949;BME280;38812;50.942;3.644;2023-04-22T01:24:15;100749.94;;;5.01;100.00
52949;BME280;38812;50.942;3.644;2023-04-22T01:26:41;100749.91;;;4.98;100.00
52949;BME280;38812;50.942;3.644;2023-04-22T01:29:07;100742.13;;;4.86;100.00
52949;BME280;38812;50.942;3.644;2023-04-22T01:31:32;100743.00;;;4.88;100.00
52949;BME280;38812;50.942;3.644;2023-04-22T01:33:58;100743.00;;;4.91;100.00
52949;BME280;38812;50.942;3.644;2023-04-22T01:36:24;100741.28;;;4.95;100.00
52949;BME280;38812;50.942;3.644;2023-04-22T01:38:50;100736.06;;;4.90;100.00
52949;BME280;38812;50.942;3.644;2023-04-22T01:41:15;100731.72;;;4.89;100.00
52949;BME280;38812;50.942;3.644;2023-04-22T01:43:41;100741.25;;;4.87;100.00
52949;BME280;38812;50.942;3.644;2023-04-22T01:46:08;100736.91;;;4.83;100.00
52949;BME280;38812;50.942;3.644;2023-04-22T01:48:34;100738.66;;;4.87;100.00
52949;BME280;38812;50.942;3.644;2023-04-22T01:50:59;100735.16;;;4.80;100.00
52949;BME280;38812;50.942;3.644;2023-04-22T01:53:25;100732.56;;;4.85;100.00
52949;BME280;38812;50.942;3.644;2023-04-22T01:55:51;100744.72;;;4.83;100.00
52949;BME280;38812;50.942;3.644;2023-04-22T01:58:17;100745.59;;;4.71;100.00
52949;BME280;38812;50.942;3.644;2023-04-22T02:00:42;100742.13;;;4.69;100.00
52949;BME280;38812;50.942;3.644;2023-04-22T02:03:08;100744.72;;;4.71;100.00
52949;BME280;38812;50.942;3.644;2023-04-22T02:05:33;100745.56;;;4.65;100.00
52949;BME280;38812;50.942;3.644;2023-04-22T02:07:59;100741.22;;;4.57;100.00
52949;BME280;38812;50.942;3.644;2023-04-22T02:10:24;100730.81;;;4.51;100.00
52949;BME280;38812;50.942;3.644;2023-04-22T02:12:50;100733.41;;;4.55;100.00
52949;BME280;38812;50.942;3.644;2023-04-22T02:15:15;100710.84;;;4.45;100.00
52949;BME280;38812;50.942;3.644;2023-04-22T02:17:41;100738.63;;;4.60;100.00
52949;BME280;38812;50.942;3.644;2023-04-22T02:20:08;100723.88;;;4.59;100.00
52949;BME280;38812;50.942;3.644;2023-04-22T02:22:37;100731.69;;;4.60;100.00
52949;BME280;38812;50.942;3.644;2023-04-22T02:25:03;100719.53;;;4.62;100.00
52949;BME280;38812;50.942;3.644;2023-04-22T02:27:29;100721.28;;;4.68;100.00
52949;BME280;38812;50.942;3.644;2023-04-22T02:29:54;100730.84;;;4.72;100.00
52949;BME280;38812;50.942;3.644;2023-04-22T02:32:19;100717.84;;;4.73;100.00
52949;BME280;38812;50.942;3.644;2023-04-22T02:34:47;100723.88;;;4.80;100.00
52949;BME280;38812;50.942;3.644;2023-04-22T02:37:12;100723.88;;;4.77;100.00
52949;BME280;38812;50.942;3.644;2023-04-22T02:39:38;100722.16;;;4.79;100.00
52949;BME280;38812;50.942;3.644;2023-04-22T02:42:03;100707.44;;;4.72;100.00
52949;BME280;38812;50.942;3.644;2023-04-22T02:44:28;100708.25;;;4.98;100.00
52949;BME280;38812;50.942;3.644;2023-04-22T02:46:54;100715.22;;;4.90;100.00
52949;BME280;38812;50.942;3.644;2023-04-22T02:49:19;100705.69;;;4.86;100.00
52949;BME280;38812;50.942;3.644;2023-04-22T02:51:45;100704.81;;;4.84;100.00
52949;BME280;38812;50.942;3.644;2023-04-22T02:54:10;100706.56;;;4.88;100.00
52949;BME280;38812;50.942;3.644;2023-04-22T02:56:35;100705.69;;;4.86;100.00
52949;BME280;38812;50.942;3.644;2023-04-22T02:59:01;100706.56;;;4.97;100.00
52949;BME280;38812;50.942;3.644;2023-04-22T03:01:26;100722.16;;;5.00;100.00
52949;BME280;38812;50.942;3.644;2023-04-22T03:03:51;100712.63;;;4.92;100.00
52949;BME280;38812;50.942;3.644;2023-04-22T03:06:17;100700.47;;;4.89;100.00
52949;BME280;38812;50.942;3.644;2023-04-22T03:08:42;100705.69;;;4.85;100.00
52949;BME280;38812;50.942;3.644;2023-04-22T03:11:08;100702.19;;;4.78;100.00
52949;BME280;38812;50.942;3.644;2023-04-22T03:13:33;100700.47;;;4.80;100.00
52949;BME280;38812;50.942;3.644;2023-04-22T03:15:58;100696.13;;;4.82;100.00
52949;BME280;38812;50.942;3.644;2023-04-22T03:18:24;100691.81;;;4.87;100.00
52949;BME280;38812;50.942;3.644;2023-04-22T03:20:49;100686.59;;;4.84;100.00
52949;BME280;38812;50.942;3.644;2023-04-22T03:23:15;100676.19;;;4.82;100.00
52949;BME280;38812;50.942;3.644;2023-04-22T03:25:40;100674.44;;;4.80;100.00
52949;BME280;38812;50.942;3.644;2023-04-22T03:28:06;100677.91;;;4.83;100.00
52949;BME280;38812;50.942;3.644;2023-04-22T03:30:31;100675.31;;;4.82;100.00
52949;BME280;38812;50.942;3.644;2023-04-22T03:32:57;100680.50;;;4.82;100.00
52949;BME280;38812;50.942;3.644;2023-04-22T03:35:22;100667.53;;;4.76;100.00
52949;BME280;38812;50.942;3.644;2023-04-22T03:37:48;100673.59;;;4.93;100.00
52949;BME280;38812;50.942;3.644;2023-04-22T03:40:13;100670.13;;;4.94;100.00
52949;BME280;38812;50.942;3.644;2023-04-22T03:42:38;100659.69;;;4.85;100.00
52949;BME280;38812;50.942;3.644;2023-04-22T03:45:04;100651.03;;;4.74;100.00
52949;BME280;38812;50.942;3.644;2023-04-22T03:47:30;100651.00;;;4.77;100.00
52949;BME280;38812;50.942;3.644;2023-04-22T03:49:55;100641.47;;;4.94;100.00
52949;BME280;38812;50.942;3.644;2023-04-22T03:52:21;100641.47;;;4.80;100.00
52949;BME280;38812;50.942;3.644;2023-04-22T03:54:46;100630.22;;;4.68;100.00
52949;BME280;38812;50.942;3.644;2023-04-22T03:57:11;100639.75;;;4.75;100.00
52949;BME280;38812;50.942;3.644;2023-04-22T03:59:37;100636.28;;;4.76;100.00
52949;BME280;38812;50.942;3.644;2023-04-22T04:02:02;100631.06;;;4.87;100.00
52949;BME280;38812;50.942;3.644;2023-04-22T04:04:27;100631.94;;;4.84;100.00
52949;BME280;38812;50.942;3.644;2023-04-22T04:06:54;100631.94;;;4.84;100.00
52949;BME280;38812;50.942;3.644;2023-04-22T04:09:19;100634.53;;;4.93;100.00
52949;BME280;38812;50.942;3.644;2023-04-22T04:11:45;100636.28;;;4.97;100.00
52949;BME280;38812;50.942;3.644;2023-04-22T04:14:10;100628.47;;;4.93;100.00
52949;BME280;38812;50.942;3.644;2023-04-22T04:16:36;100639.72;;;5.05;100.00
52949;BME280;38812;50.942;3.644;2023-04-22T04:19:02;100634.50;;;5.16;100.00
52949;BME280;38812;50.942;3.644;2023-04-22T04:21:28;100622.34;;;5.09;100.00
52949;BME280;38812;50.942;3.644;2023-04-22T04:23:53;100628.41;;;5.11;100.00
52949;BME280;38812;50.942;3.644;2023-04-22T04:26:19;100621.47;;;5.05;100.00
52949;BME280;38812;50.942;3.644;2023-04-22T04:28:44;100617.16;;;5.03;100.00
52949;BME280;38812;50.942;3.644;2023-04-22T04:31:10;100618.00;;;5.00;100.00
52949;BME280;38812;50.942;3.644;2023-04-22T04:33:35;100628.44;;;5.06;100.00
52949;BME280;38812;50.942;3.644;2023-04-22T04:36:01;100617.19;;;4.95;100.00
52949;BME280;38812;50.942;3.644;2023-04-22T04:38:27;100621.47;;;5.08;100.00
52949;BME280;38812;50.942;3.644;2023-04-22T04:40:53;100617.16;;;4.98;100.00
52949;BME280;38812;50.942;3.644;2023-04-22T04:43:19;100619.75;;;5.09;100.00
52949;BME280;38812;50.942;3.644;2023-04-22T04:45:45;100624.97;;;5.01;100.00
52949;BME280;38812;50.942;3.644;2023-04-22T04:48:14;100622.34;;;5.00;100.00
52949;BME280;38812;50.942;3.644;2023-04-22T04:50:43;100616.31;;;4.96;100.00
52949;BME280;38812;50.942;3.644;2023-04-22T04:53:09;100616.28;;;5.02;100.00
52949;BME280;38812;50.942;3.644;2023-04-22T04:55:35;100618.00;;;5.03;100.00
52949;BME280;38812;50.942;3.644;2023-04-22T04:58:01;100622.34;;;5.06;100.00
52949;BME280;38812;50.942;3.644;2023-04-22T05:00:26;100607.53;;;5.23;100.00
52949;BME280;38812;50.942;3.644;2023-04-22T05:02:51;100614.53;;;5.16;100.00
52949;BME280;38812;50.942;3.644;2023-04-22T05:05:17;100628.41;;;5.14;100.00
52949;BME280;38812;50.942;3.644;2023-04-22T05:07:42;100605.84;;;5.14;100.00
52949;BME280;38812;50.942;3.644;2023-04-22T05:10:08;100614.53;;;5.20;100.00
52949;BME280;38812;50.942;3.644;2023-04-22T05:12:34;100601.50;;;5.20;100.00
52949;BME280;38812;50.942;3.644;2023-04-22T05:14:59;100599.72;;;5.25;100.00
52949;BME280;38812;50.942;3.644;2023-04-22T05:17:25;100611.78;;;5.47;100.00
52949;BME280;38812;50.942;3.644;2023-04-22T05:19:51;100617.00;;;5.53;100.00
52949;BME280;38812;50.942;3.644;2023-04-22T05:22:16;100625.69;;;5.52;100.00
52949;BME280;38812;50.942;3.644;2023-04-22T05:24:42;100625.69;;;5.52;100.00
52949;BME280;38812;50.942;3.644;2023-04-22T05:27:08;100628.28;;;5.58;100.00
52949;BME280;38812;50.942;3.644;2023-04-22T05:29:33;100634.28;;;5.66;100.00
52949;BME280;38812;50.942;3.644;2023-04-22T05:31:59;100631.69;;;5.66;100.00
52949;BME280;38812;50.942;3.644;2023-04-22T05:34:24;100635.16;;;5.65;100.00
52949;BME280;38812;50.942;3.644;2023-04-22T05:36:50;100628.19;;;5.73;100.00
52949;BME280;38812;50.942;3.644;2023-04-22T05:39:15;100626.44;;;5.80;100.00
52949;BME280;38812;50.942;3.644;2023-04-22T05:41:40;100611.66;;;5.83;100.00
52949;BME280;38812;50.942;3.644;2023-04-22T05:44:06;100610.75;;;5.91;100.00
52949;BME280;38812;50.942;3.644;2023-04-22T05:46:32;100604.47;;;6.21;100.00
52949;BME280;38812;50.942;3.644;2023-04-22T05:48:57;100594.78;;;6.39;100.00
52949;BME280;38812;50.942;3.644;2023-04-22T05:51:23;100591.25;;;6.43;100.00
52949;BME280;38812;50.942;3.644;2023-04-22T05:53:49;100582.53;;;6.47;100.00
52949;BME280;38812;50.942;3.644;2023-04-22T05:56:15;100609.44;;;6.52;100.00
52949;BME280;38812;50.942;3.644;2023-04-22T05:58:40;100618.19;;;6.47;100.00
52949;BME280;38812;50.942;3.644;2023-04-22T06:01:06;100629.50;;;6.47;100.00
52949;BME280;38812;50.942;3.644;2023-04-22T06:03:31;100628.53;;;6.58;100.00
52949;BME280;38812;50.942;3.644;2023-04-22T06:05:57;100628.56;;;6.53;100.00
52949;BME280;38812;50.942;3.644;2023-04-22T06:08:22;100612.03;;;6.52;100.00
52949;BME280;38812;50.942;3.644;2023-04-22T06:10:48;100614.47;;;6.74;100.00
52949;BME280;38812;50.942;3.644;2023-04-22T06:13:14;100613.56;;;6.78;100.00
52949;BME280;38812;50.942;3.644;2023-04-22T06:15:39;100602.22;;;6.82;100.00
52949;BME280;38812;50.942;3.644;2023-04-22T06:18:05;100582.13;;;6.90;100.00
52949;BME280;38812;50.942;3.644;2023-04-22T06:20:30;100590.88;;;6.84;100.00
52949;BME280;38812;50.942;3.644;2023-04-22T06:23:00;100595.97;;;6.95;100.00
52949;BME280;38812;50.942;3.644;2023-04-22T06:25:25;100585.69;;;6.80;100.00
52949;BME280;38812;50.942;3.644;2023-04-22T06:27:51;100581.34;;;6.82;100.00
52949;BME280;38812;50.942;3.644;2023-04-22T06:30:16;100581.19;;;6.96;100.00
52949;BME280;38812;50.942;3.644;2023-04-22T06:32:41;100578.47;;;7.06;100.00
52949;BME280;38812;50.942;3.644;2023-04-22T06:35:07;100575.78;;;7.12;100.00
52949;BME280;38812;50.942;3.644;2023-04-22T06:37:33;100585.16;;;7.32;100.00
52949;BME280;38812;50.942;3.644;2023-04-22T06:39:58;100598.97;;;7.40;100.00
52949;BME280;38812;50.942;3.644;2023-04-22T06:42:23;100587.75;;;7.33;100.00
52949;BME280;38812;50.942;3.644;2023-04-22T06:44:49;100599.75;;;7.48;100.00
52949;BME280;38812;50.942;3.644;2023-04-22T06:47:14;100590.97;;;7.53;100.00
52949;BME280;38812;50.942;3.644;2023-04-22T06:49:39;100583.25;;;7.43;100.00
52949;BME280;38812;50.942;3.644;2023-04-22T06:52:05;100593.69;;;7.44;100.00
52949;BME280;38812;50.942;3.644;2023-04-22T06:54:30;100580.38;;;7.63;100.00
52949;BME280;38812;50.942;3.644;2023-04-22T06:56:56;100581.09;;;7.75;100.00
52949;BME280;38812;50.942;3.644;2023-04-22T06:59:21;100580.97;;;7.83;100.00
52949;BME280;38812;50.942;3.644;2023-04-22T07:01:47;100585.91;;;8.03;100.00
52949;BME280;38812;50.942;3.644;2023-04-22T07:04:12;100576.22;;;8.11;100.00
52949;BME280;38812;50.942;3.644;2023-04-22T07:06:38;100569.41;;;8.01;100.00
52949;BME280;38812;50.942;3.644;2023-04-22T07:09:03;100571.78;;;8.16;100.00
52949;BME280;38812;50.942;3.644;2023-04-22T07:11:29;100576.88;;;8.23;100.00
52949;BME280;38812;50.942;3.644;2023-04-22T07:13:56;100565.69;;;8.15;100.00
52949;BME280;38812;50.942;3.644;2023-04-22T07:16:21;100568.31;;;8.14;100.00
52949;BME280;38812;50.942;3.644;2023-04-22T07:18:47;100553.22;;;8.33;100.00
52949;BME280;38812;50.942;3.644;2023-04-22T07:21:12;100535.81;;;8.27;100.00
52949;BME280;38812;50.942;3.644;2023-04-22T07:23:38;100542.91;;;8.73;100.00
52949;BME280;38812;50.942;3.644;2023-04-22T07:26:03;100545.41;;;8.79;100.00
52949;BME280;38812;50.942;3.644;2023-04-22T07:28:29;100548.03;;;8.79;100.00
52949;BME280;38812;50.942;3.644;2023-04-22T07:30:54;100527.13;;;9.20;100.00
52949;BME280;38812;50.942;3.644;2023-04-22T07:33:19;100524.66;;;9.13;100.00
52949;BME280;38812;50.942;3.644;2023-04-22T07:35:45;100536.63;;;9.27;100.00
52949;BME280;38812;50.942;3.644;2023-04-22T07:38:11;100536.56;;;9.31;100.00
52949;BME280;38812;50.942;3.644;2023-04-22T07:40:36;100529.59;;;9.30;100.00
52949;BME280;38812;50.942;3.644;2023-04-22T07:43:02;100534.03;;;9.26;100.00
52949;BME280;38812;50.942;3.644;2023-04-22T07:45:29;100517.59;;;9.16;100.00
52949;BME280;38812;50.942;3.644;2023-04-22T07:47:55;100540.25;;;9.20;100.00
52949;BME280;38812;50.942;3.644;2023-04-22T07:50:20;100535.56;;;9.35;100.00
52949;BME280;38812;50.942;3.644;2023-04-22T07:52:45;100532.44;;;9.59;100.00
52949;BME280;38812;50.942;3.644;2023-04-22T07:55:11;100526.19;;;9.65;100.00
52949;BME280;38812;50.942;3.644;2023-04-22T07:57:36;100535.75;;;9.67;100.00
52949;BME280;38812;50.942;3.644;2023-04-22T08:00:07;100540.50;;;10.27;100.00
52949;BME280;38812;50.942;3.644;2023-04-22T08:02:33;100527.34;;;10.61;100.00
52949;BME280;38812;50.942;3.644;2023-04-22T08:04:59;100540.56;;;10.59;100.00
52949;BME280;38812;50.942;3.644;2023-04-22T08:07:30;100541.03;;;10.74;100.00
52949;BME280;38812;50.942;3.644;2023-04-22T08:09:55;100557.66;;;11.38;100.00
52949;BME280;38812;50.942;3.644;2023-04-22T08:12:21;100554.31;;;11.62;100.00
52949;BME280;38812;50.942;3.644;2023-04-22T08:14:47;100563.75;;;11.69;100.00
52949;BME280;38812;50.942;3.644;2023-04-22T08:17:12;100567.59;;;11.57;100.00
52949;BME280;38812;50.942;3.644;2023-04-22T08:19:37;100562.91;;;11.68;100.00
52949;BME280;38812;50.942;3.644;2023-04-22T08:22:03;100571.50;;;11.44;100.00
52949;BME280;38812;50.942;3.644;2023-04-22T08:24:28;100590.25;;;11.32;100.00
52949;BME280;38812;50.942;3.644;2023-04-22T08:26:53;100601.44;;;11.08;100.00
52949;BME280;38812;50.942;3.644;2023-04-22T08:29:19;100610.16;;;10.77;100.00
52949;BME280;38812;50.942;3.644;2023-04-22T08:31:44;100614.25;;;10.53;100.00
52949;BME280;38812;50.942;3.644;2023-04-22T08:34:10;100619.94;;;10.35;100.00
52949;BME280;38812;50.942;3.644;2023-04-22T08:36:35;100622.00;;;10.21;100.00
52949;BME280;38812;50.942;3.644;2023-04-22T08:39:01;100630.97;;;10.11;100.00
52949;BME280;38812;50.942;3.644;2023-04-22T08:41:26;100614.03;;;9.85;100.00
52949;BME280;38812;50.942;3.644;2023-04-22T08:43:52;100612.63;;;9.71;100.00
52949;BME280;38812;50.942;3.644;2023-04-22T08:46:18;100616.16;;;9.68;100.00
52949;BME280;38812;50.942;3.644;2023-04-22T08:48:49;100604.34;;;9.49;100.00
52949;BME280;38812;50.942;3.644;2023-04-22T08:51:15;100600.50;;;9.65;100.00
52949;BME280;38812;50.942;3.644;2023-04-22T08:53:42;100600.41;;;9.70;100.00
52949;BME280;38812;50.942;3.644;2023-04-22T08:56:08;100583.97;;;9.60;100.00
52949;BME280;38812;50.942;3.644;2023-04-22T08:58:35;100593.53;;;9.64;100.00
52949;BME280;38812;50.942;3.644;2023-04-22T09:01:02;100571.38;;;9.36;100.00
52949;BME280;38812;50.942;3.644;2023-04-22T09:03:28;100566.94;;;9.39;100.00
52949;BME280;38812;50.942;3.644;2023-04-22T09:05:54;100568.59;;;9.43;100.00
52949;BME280;38812;50.942;3.644;2023-04-22T09:08:19;100565.19;;;9.40;100.00
52949;BME280;38812;50.942;3.644;2023-04-22T09:10:45;100573.88;;;9.42;100.00
52949;BME280;38812;50.942;3.644;2023-04-22T09:13:12;100555.59;;;9.39;100.00
52949;BME280;38812;50.942;3.644;2023-04-22T09:15:38;100566.81;;;9.45;100.00
52949;BME280;38812;50.942;3.644;2023-04-22T09:18:03;100569.59;;;9.38;100.00
52949;BME280;38812;50.942;3.644;2023-04-22T09:20:30;100589.72;;;9.36;100.00
52949;BME280;38812;50.942;3.644;2023-04-22T09:22:56;100601.06;;;9.38;100.00
52949;BME280;38812;50.942;3.644;2023-04-22T09:25:26;100595.75;;;9.41;100.00
52949;BME280;38812;50.942;3.644;2023-04-22T09:27:53;100609.81;;;9.37;100.00
52949;BME280;38812;50.942;3.644;2023-04-22T09:30:27;100621.34;;;9.30;100.00
52949;BME280;38812;50.942;3.644;2023-04-22T09:32:55;100611.66;;;9.32;100.00
52949;BME280;38812;50.942;3.644;2023-04-22T09:37:55;100554.72;;;9.78;100.00
52949;BME280;38812;50.942;3.644;2023-04-22T09:40:21;100565.63;;;9.60;100.00
52949;BME280;38812;50.942;3.644;2023-04-22T09:42:48;100573.63;;;9.54;100.00
52949;BME280;38812;50.942;3.644;2023-04-22T09:45:24;100576.75;;;9.71;100.00
52949;BME280;38812;50.942;3.644;2023-04-22T09:47:50;100570.22;;;9.90;100.00
52949;BME280;38812;50.942;3.644;2023-04-22T09:50:19;100558.19;;;9.80;100.00
52949;BME280;38812;50.942;3.644;2023-04-22T09:52:44;100533.28;;;9.59;100.00
52949;BME280;38812;50.942;3.644;2023-04-22T09:55:17;100541.75;;;9.74;100.00
52949;BME280;38812;50.942;3.644;2023-04-22T09:57:44;100523.19;;;9.81;100.00
52949;BME280;38812;50.942;3.644;2023-04-22T10:00:11;100521.50;;;9.77;100.00
52949;BME280;38812;50.942;3.644;2023-04-22T10:02:38;100529.56;;;10.07;100.00
52949;BME280;38812;50.942;3.644;2023-04-22T10:05:03;100546.00;;;10.16;100.00
52949;BME280;38812;50.942;3.644;2023-04-22T10:07:29;100550.34;;;10.17;100.00
52949;BME280;38812;50.942;3.644;2023-04-22T10:09:56;100554.97;;;10.06;100.00
52949;BME280;38812;50.942;3.644;2023-04-22T10:12:21;100584.16;;;9.92;100.00
52949;BME280;38812;50.942;3.644;2023-04-22T10:14:47;100591.38;;;9.81;100.00
52949;BME280;38812;50.942;3.644;2023-04-22T10:17:13;100587.06;;;9.79;100.00
52949;BME280;38812;50.942;3.644;2023-04-22T10:19:39;100611.00;;;9.65;100.00
52949;BME280;38812;50.942;3.644;2023-04-22T10:22:05;100631.41;;;9.51;100.00
52949;BME280;38812;50.942;3.644;2023-04-22T10:24:35;100598.22;;;9.48;100.00
52949;BME280;38812;50.942;3.644;2023-04-22T10:27:04;100553.22;;;9.68;100.00
52949;BME280;38812;50.942;3.644;2023-04-22T10:29:37;100542.16;;;9.54;100.00
52949;BME280;38812;50.942;3.644;2023-04-22T10:32:23;100553.25;;;9.67;100.00
52949;BME280;38812;50.942;3.644;2023-04-22T10:35:01;100561.50;;;9.50;100.00
52949;BME280;38812;50.942;3.644;2023-04-22T10:37:30;100589.28;;;9.57;100.00
52949;BME280;38812;50.942;3.644;2023-04-22T10:40:10;100594.69;;;9.51;100.00
52949;BME280;38812;50.942;3.644;2023-04-22T10:42:50;100580.84;;;9.43;100.00
52949;BME280;38812;50.942;3.644;2023-04-22T10:45:16;100564.13;;;9.48;100.00
52949;BME280;38812;50.942;3.644;2023-04-22T10:47:42;100573.03;;;9.40;100.00
52949;BME280;38812;50.942;3.644;2023-04-22T10:52:45;100595.56;;;9.50;100.00
52949;BME280;38812;50.942;3.644;2023-04-22T10:55:10;100584.00;;;9.58;100.00
52949;BME280;38812;50.942;3.644;2023-04-22T10:57:40;100576.03;;;9.65;100.00
52949;BME280;38812;50.942;3.644;2023-04-22T11:03:06;100574.31;;;9.62;100.00
52949;BME280;38812;50.942;3.644;2023-04-22T11:05:32;100567.09;;;9.73;100.00
52949;BME280;38812;50.942;3.644;2023-04-22T11:08:15;100575.00;;;9.72;100.00
52949;BME280;38812;50.942;3.644;2023-04-22T11:10:48;100589.56;;;9.85;100.00
52949;BME280;38812;50.942;3.644;2023-04-22T11:13:19;100579.09;;;9.83;100.00
52949;BME280;38812;50.942;3.644;2023-04-22T11:15:52;100589.34;;;9.95;100.00
52949;BME280;38812;50.942;3.644;2023-04-22T11:18:22;100593.63;;;9.98;100.00
52949;BME280;38812;50.942;3.644;2023-04-22T11:20:48;100586.81;;;9.91;100.00
52949;BME280;38812;50.942;3.644;2023-04-22T11:23:28;100588.34;;;10.00;100.00
52949;BME280;38812;50.942;3.644;2023-04-22T11:25:58;100576.47;;;10.22;100.00
52949;BME280;38812;50.942;3.644;2023-04-22T11:28:24;100563.44;;;10.54;100.00
52949;BME280;38812;50.942;3.644;2023-04-22T11:30:50;100571.47;;;10.48;100.00
52949;BME280;38812;50.942;3.644;2023-04-22T11:33:16;100565.00;;;10.61;100.00
52949;BME280;38812;50.942;3.644;2023-04-22T11:35:41;100573.63;;;10.67;100.00
52949;BME280;38812;50.942;3.644;2023-04-22T11:38:07;100563.00;;;10.71;100.00
52949;BME280;38812;50.942;3.644;2023-04-22T11:40:35;100559.44;;;10.74;100.00
52949;BME280;38812;50.942;3.644;2023-04-22T11:43:03;100560.59;;;10.96;100.00
52949;BME280;38812;50.942;3.644;2023-04-22T11:45:30;100561.16;;;10.75;100.00
52949;BME280;38812;50.942;3.644;2023-04-22T11:47:56;100562.22;;;10.68;100.00
52949;BME280;38812;50.942;3.644;2023-04-22T11:50:23;100558.13;;;10.57;100.00
52949;BME280;38812;50.942;3.644;2023-04-22T11:52:58;100555.69;;;10.50;100.00
52949;BME280;38812;50.942;3.644;2023-04-22T11:55:27;100565.53;;;10.40;100.00
52949;BME280;38812;50.942;3.644;2023-04-22T11:58:19;100562.19;;;10.35;100.00
52949;BME280;38812;50.942;3.644;2023-04-22T12:00:52;100572.38;;;10.47;100.00
52949;BME280;38812;50.942;3.644;2023-04-22T12:03:23;100578.34;;;10.54;100.00
52949;BME280;38812;50.942;3.644;2023-04-22T12:05:52;100609.06;;;10.50;100.00
52949;BME280;38812;50.942;3.644;2023-04-22T12:08:20;100581.84;;;10.54;100.00
52949;BME280;38812;50.942;3.644;2023-04-22T12:10:53;100588.91;;;10.51;100.00
52949;BME280;38812;50.942;3.644;2023-04-22T12:14:03;100583.75;;;10.48;100.00
52949;BME280;38812;50.942;3.644;2023-04-22T12:16:13;100590.38;;;10.62;100.00
52949;BME280;38812;50.942;3.644;2023-04-22T12:18:54;100601.16;;;10.52;100.00
52949;BME280;38812;50.942;3.644;2023-04-22T12:21:21;100602.47;;;10.34;100.00
52949;BME280;38812;50.942;3.644;2023-04-22T12:23:54;100594.97;;;10.17;100.00
52949;BME280;38812;50.942;3.644;2023-04-22T12:26:21;100588.72;;;10.23;100.00
52949;BME280;38812;50.942;3.644;2023-04-22T12:28:48;100583.16;;;10.71;100.00
52949;BME280;38812;50.942;3.644;2023-04-22T12:31:14;100584.06;;;10.36;100.00
52949;BME280;38812;50.942;3.644;2023-04-22T12:33:39;100594.06;;;10.55;100.00
52949;BME280;38812;50.942;3.644;2023-04-22T12:36:05;100590.56;;;10.55;100.00
52949;BME280;38812;50.942;3.644;2023-04-22T12:38:31;100595.34;;;10.73;100.00
52949;BME280;38812;50.942;3.644;2023-04-22T12:40:57;100599.91;;;10.67;100.00
52949;BME280;38812;50.942;3.644;2023-04-22T12:43:22;100601.59;;;10.69;100.00
52949;BME280;38812;50.942;3.644;2023-04-22T12:45:48;100601.09;;;10.55;100.00
52949;BME280;38812;50.942;3.644;2023-04-22T12:48:14;100603.28;;;10.72;100.00
52949;BME280;38812;50.942;3.644;2023-04-22T12:50:40;100601.22;;;10.83;100.00
52949;BME280;38812;50.942;3.644;2023-04-22T12:53:05;100605.75;;;10.78;100.00